Pagrindinis puslapis
METAR-TAF:

METAR-TAF

Oro uostai :

Chartumas, Sudanas

platuma: 15-36N, ilguma: 032-33E, Aukštis: 382 m

Dabartinis oras

Ataskaita buvo paskelbta 2 valandos ir 6 minutes, ne 21:00 UTC
Vėjas 10 kt iš Šiaurės/Šiaurės Vakarų
Temperatūra 36°C
Drėgmė 8%
Slėgis 1009 hPa
Matomumas 10 km arba daugiau
nėra debesų žemiau 1500 m ir nėra kamuolinių lietaus debesų

METAR: HSSS 302100Z 34010KT CAVOK 36/M03 Q1009 NOSIG

Laikas: 01:06 (23:06 UTC)

Prognozė

Ataskaita buvo paskelbta 6 valandos ir 6 minutes, ne 17:00 UTC
Prognozė galioja nuo 30 metu 18 UTC su 31 metu 24 UTC
Vėjas 10 kt iš Šiaurės su gūsio iki 20 kt
Matomumas 10 km arba daugiau
nėra debesų žemiau 1500 m ir nėra kamuolinių lietaus debesų
Laikinai
nuo 30 metu 18 UTC su 30 metu 22 UTC
Matomumas: 6000 m

TAF: HSSS 301700Z 3018/3124 36010G20KT CAVOK TEMPO 3018/3022 6000

Orai ataskaitas ir orų prognozės (METAR, TAF).

turimą stotys yra geltonos ir raudonos taškus žemėlapyje.

Perkelti pele per norėdami pamatyti stoties vardą.

Tada spustelėkite, norėdami matyti oro stebėjimo ir prognozės.

Norėdami pakeisti žemėlapį: spustelėkite ant žalios mygtukų su juodo kryžiaus žemyn,; žalią mygtuką su brūkšneliu, jei norite nutolinti; arba žalių rodyklių gretimoms žemėlapius.


METAR-TAF: